Time;durP1;ratioP1;P1;durP2;ratioP2;P2;SDS_P1;SDS_P2;PMS_P1;PMS_P2;Temp;Humidity;BMP_temperature;BMP_pressure;BME280_temperature;BME280_humidity;BME280_pressure;Samples;Min_cycle;Max_cycle;Signal;HPM_P1;HPM_P2
2023/01/06 00:00:22;;;;;;;0.00;0.00;;;;;;;-145.06;100.00;53900.50;10289069;28;20109;-78
2023/01/06 00:05:22;;;;;;;0.10;0.10;;;;;;;-145.06;100.00;53884.28;10306271;28;20022;-78
2023/01/06 00:10:23;;;;;;;0.00;0.00;;;;;;;-145.06;100.00;53890.38;10288789;28;20073;-79
2023/01/06 00:15:23;;;;;;;0.00;0.00;;;;;;;-145.06;100.00;53874.16;10287763;28;20027;-79
2023/01/06 00:20:23;;;;;;;0.00;0.00;;;;;;;-145.06;100.00;53896.44;10287485;28;20074;-78
2023/01/06 00:25:24;;;;;;;0.00;0.00;;;;;;;-145.06;100.00;53876.19;10305113;28;20023;-79
2023/01/06 00:30:24;;;;;;;0.00;0.00;;;;;;;-145.06;100.00;53914.66;10305627;28;20051;-79
2023/01/06 00:35:24;;;;;;;0.00;0.00;;;;;;;-145.06;100.00;53874.16;10305122;28;20062;-79
2023/01/06 00:40:25;;;;;;;0.10;0.10;;;;;;;-145.06;100.00;53894.41;10287433;28;20482;-79
2023/01/06 00:45:25;;;;;;;0.10;0.10;;;;;;;-145.06;100.00;53890.38;10304944;28;20054;-79
2023/01/06 00:50:25;;;;;;;0.00;0.00;;;;;;;-145.06;100.00;53900.50;10310793;28;20389;-79
2023/01/06 00:55:26;;;;;;;0.00;0.00;;;;;;;-145.06;100.00;53870.09;10285479;28;20088;-79
2023/01/06 01:00:26;;;;;;;0.10;0.10;;;;;;;-145.06;100.00;53882.25;10302959;28;20857;-78
2023/01/06 01:05:26;;;;;;;0.00;0.00;;;;;;;-145.06;100.00;53882.25;10302994;28;20069;-78
2023/01/06 01:10:27;;;;;;;0.00;0.00;;;;;;;-145.06;100.00;53882.25;10285608;28;20365;-78
2023/01/06 01:15:27;;;;;;;0.00;0.00;;;;;;;-145.06;100.00;53888.34;10302622;28;20094;-79
2023/01/06 01:20:27;;;;;;;0.10;0.10;;;;;;;-145.06;100.00;53888.34;10305789;28;20102;-79
2023/01/06 01:25:28;;;;;;;0.10;0.10;;;;;;;-145.06;100.00;53880.22;10302959;28;20023;-79
2023/01/06 01:30:28;;;;;;;0.10;0.10;;;;;;;-145.06;100.00;53888.34;10302704;28;20031;-79
2023/01/06 01:35:28;;;;;;;0.10;0.10;;;;;;;-145.06;100.00;53906.56;10301855;28;20329;-79
2023/01/06 01:40:28;;;;;;;0.00;0.00;;;;;;;-145.06;100.00;53849.84;10301803;28;20394;-79
2023/01/06 01:45:29;;;;;;;0.00;0.00;;;;;;;-145.06;100.00;53876.19;10285324;28;20025;-78
2023/01/06 01:50:39;;;;;;;0.10;0.10;;;;;;;-145.06;100.00;53880.22;10304689;28;20413;-79
2023/01/06 01:55:40;;;;;;;0.00;0.00;;;;;;;-145.06;100.00;53896.44;10301628;28;20493;-79
2023/01/06 02:00:42;;;;;;;0.10;0.10;;;;;;;-145.06;100.00;53896.44;10301683;28;20098;-76
2023/01/06 02:05:47;;;;;;;0.00;0.00;;;;;;;-145.06;100.00;53862.00;10301061;28;20054;-77
2023/01/06 02:10:48;;;;;;;0.00;0.00;;;;;;;-145.06;100.00;53884.28;10283586;28;20034;-78
2023/01/06 02:15:53;;;;;;;0.00;0.00;;;;;;;-145.06;100.00;53900.50;10284042;28;20102;-79
2023/01/06 02:21:12;;;;;;;0.05;0.05;;;;;;;-145.06;100.00;53882.25;10283876;28;20293;-79
2023/01/06 02:26:12;;;;;;;0.03;0.03;;;;;;;-145.06;100.00;53892.38;10283622;28;20034;-76
2023/01/06 02:31:34;;;;;;;0.10;0.10;;;;;;;-145.06;100.00;53894.41;10283348;28;20034;-76
2023/01/06 02:37:11;;;;;;;0.05;0.05;;;;;;;-145.06;100.00;53880.22;10300719;28;20033;-79
2023/01/06 02:42:48;;;;;;;0.10;0.10;;;;;;;-145.06;100.00;53847.84;10243979;28;20034;-79
2023/01/06 02:48:06;;;;;;;0.10;0.10;;;;;;;-145.06;100.00;53900.50;10282716;28;20015;-79
2023/01/06 02:53:42;;;;;;;0.00;0.00;;;;;;;-145.06;100.00;53908.59;10300716;28;20054;-78
2023/01/06 02:59:03;;;;;;;0.00;0.00;;;;;;;-145.06;100.00;53888.34;10250248;28;20042;-77
2023/01/06 03:04:09;;;;;;;0.00;0.00;;;;;;;-145.06;100.00;53878.22;10242937;28;20031;-79
2023/01/06 03:09:14;;;;;;;0.10;0.10;;;;;;;-145.06;100.00;53857.97;10271629;28;20482;-79
2023/01/06 03:14:22;;;;;;;0.10;0.10;;;;;;;-145.06;100.00;53870.09;10317813;23;20130;-78
2023/01/06 03:19:23;;;;;;;0.00;0.00;;;;;;;-145.06;100.00;53880.22;10306380;28;20054;-78
2023/01/06 03:24:23;;;;;;;0.10;0.10;;;;;;;-145.06;100.00;53880.22;10313195;28;20018;-78
2023/01/06 03:29:24;;;;;;;0.10;0.10;;;;;;;-145.06;100.00;53890.38;10306560;28;20034;-79
2023/01/06 03:34:46;;;;;;;0.10;0.10;;;;;;;-145.06;100.00;53928.84;10288718;28;20018;-78
2023/01/06 03:40:00;;;;;;;0.10;0.10;;;;;;;-145.06;100.00;53886.31;10286134;28;20050;-79
2023/01/06 03:45:21;;;;;;;0.10;0.10;;;;;;;-145.06;100.00;53910.63;10287386;28;20031;-79
2023/01/06 03:50:31;;;;;;;0.10;0.10;;;;;;;-145.06;100.00;53880.22;10307064;28;20282;-79
2023/01/06 03:55:35;;;;;;;0.00;0.00;;;;;;;-145.06;100.00;53910.63;10312348;28;20519;-79
2023/01/06 04:00:36;;;;;;;0.00;0.00;;;;;;;-145.06;100.00;53862.00;10293738;28;20470;-79
2023/01/06 04:05:37;;;;;;;0.10;0.10;;;;;;;-145.06;100.00;53906.56;10310182;28;20030;-78
2023/01/06 04:10:37;;;;;;;0.00;0.00;;;;;;;-145.06;100.00;53890.38;10310960;28;20031;-79
2023/01/06 04:15:37;;;;;;;0.00;0.00;;;;;;;-145.06;100.00;53859.97;10293430;28;20565;-79
2023/01/06 04:20:38;;;;;;;0.00;0.00;;;;;;;-145.06;100.00;53862.00;10312163;28;20506;-78
2023/01/06 04:25:38;;;;;;;0.10;0.10;;;;;;;-145.06;100.00;53902.50;10310031;28;20106;-78
2023/01/06 04:30:38;;;;;;;0.10;0.10;;;;;;;-145.06;100.00;53851.88;10292235;28;20504;-79
2023/01/06 04:35:39;;;;;;;0.00;0.00;;;;;;;-145.06;100.00;53868.09;10309092;28;20324;-79
2023/01/06 04:40:41;;;;;;;0.10;0.10;;;;;;;-145.06;100.00;53888.34;10310274;28;20019;-78
2023/01/06 04:45:42;;;;;;;0.00;0.00;;;;;;;-145.06;100.00;53894.41;10308344;28;20038;-78
2023/01/06 04:50:43;;;;;;;0.00;0.00;;;;;;;-145.06;100.00;53894.41;10319154;28;20105;-78
2023/01/06 04:55:43;;;;;;;0.00;0.00;;;;;;;-145.06;100.00;53898.47;10317465;28;20466;-78
2023/01/06 05:00:43;;;;;;;0.10;0.10;;;;;;;-145.06;100.00;53874.16;10307732;28;20022;-78
2023/01/06 05:05:44;;;;;;;0.10;0.10;;;;;;;-145.06;100.00;53884.28;10293179;28;20038;-78
2023/01/06 05:10:44;;;;;;;0.03;0.03;;;;;;;-145.06;100.00;53900.50;10309131;28;20030;-78
2023/01/06 05:15:44;;;;;;;0.00;0.00;;;;;;;-145.06;100.00;53876.19;10309855;28;20796;-78
2023/01/06 05:20:49;;;;;;;0.10;0.10;;;;;;;-145.06;100.00;53886.31;10318560;28;20074;-78
2023/01/06 05:25:51;;;;;;;0.10;0.10;;;;;;;-145.06;100.00;53872.13;10306961;28;20058;-78
2023/01/06 05:30:52;;;;;;;0.00;0.00;;;;;;;-145.06;100.00;53902.50;10290057;28;20023;-78
2023/01/06 05:36:00;;;;;;;0.00;0.00;;;;;;;-145.06;100.00;53906.56;10308177;28;20019;-80
2023/01/06 05:41:01;;;;;;;0.00;0.00;;;;;;;-145.06;100.00;53855.94;10306543;28;20073;-78
2023/01/06 05:46:06;;;;;;;0.10;0.10;;;;;;;-145.06;100.00;53872.13;10306704;28;20031;-78
2023/01/06 05:51:10;;;;;;;0.05;0.05;;;;;;;-145.06;100.00;53847.84;10314252;28;20564;-77
2023/01/06 05:56:13;;;;;;;0.10;0.10;;;;;;;-145.06;100.00;53874.16;10307197;28;20023;-78
2023/01/06 06:01:24;;;;;;;0.10;0.10;;;;;;;-145.06;100.00;53847.84;10306829;28;20042;-78
2023/01/06 06:06:27;;;;;;;0.00;0.00;;;;;;;-145.06;100.00;53864.03;10291262;28;20505;-79
2023/01/06 06:11:27;;;;;;;0.10;0.10;;;;;;;-145.06;100.00;53876.19;10291418;28;20053;-78
2023/01/06 06:16:27;;;;;;;0.00;0.00;;;;;;;-145.06;100.00;53872.13;10288434;28;20109;-78
2023/01/06 06:21:30;;;;;;;0.10;0.10;;;;;;;-145.06;100.00;53900.50;10287958;28;20054;-79
2023/01/06 06:26:31;;;;;;;0.00;0.00;;;;;;;-145.06;100.00;53855.94;10304961;28;20023;-78
2023/01/06 06:31:31;;;;;;;0.10;0.10;;;;;;;-145.06;100.00;53859.97;10304885;28;20086;-78
2023/01/06 06:36:32;;;;;;;0.00;0.00;;;;;;;-145.06;100.00;53880.22;10288143;28;20054;-79
2023/01/06 06:41:32;;;;;;;0.00;0.00;;;;;;;-145.06;100.00;53884.28;10286413;28;20023;-79
2023/01/06 06:46:34;;;;;;;0.00;0.00;;;;;;;-145.06;100.00;53868.09;10286143;28;20193;-79
2023/01/06 06:51:34;;;;;;;0.10;0.10;;;;;;;-145.06;100.00;53910.63;10287428;28;20210;-79
2023/01/06 06:56:34;;;;;;;0.00;0.00;;;;;;;-145.06;100.00;53872.13;10305221;28;20030;-79
2023/01/06 07:01:35;;;;;;;0.00;0.00;;;;;;;-145.06;100.00;53855.94;10307198;28;20074;-78
2023/01/06 07:06:35;;;;;;;0.10;0.10;;;;;;;-145.06;100.00;53853.91;10306984;28;20438;-79
2023/01/06 07:11:36;;;;;;;0.10;0.10;;;;;;;-145.06;100.00;53843.78;10290020;28;20089;-78
2023/01/06 07:16:36;;;;;;;0.10;0.10;;;;;;;-145.06;100.00;53849.84;10288114;28;20276;-78
2023/01/06 07:21:37;;;;;;;0.10;0.10;;;;;;;-145.06;100.00;53847.84;10302729;28;20050;-79
2023/01/06 07:26:37;;;;;;;0.00;0.00;;;;;;;-145.06;100.00;53864.03;10328239;28;20441;-78
2023/01/06 07:31:37;;;;;;;0.00;0.00;;;;;;;-145.06;100.00;53918.72;10296099;28;20078;-79
2023/01/06 07:36:38;;;;;;;0.00;0.00;;;;;;;-145.06;100.00;53872.13;10314347;28;20053;-78
2023/01/06 07:41:38;;;;;;;0.10;0.10;;;;;;;-145.06;100.00;53886.31;10311437;28;20109;-78
2023/01/06 07:46:38;;;;;;;0.10;0.10;;;;;;;-145.06;100.00;53872.13;10294777;28;20062;-78
2023/01/06 07:51:38;;;;;;;0.10;0.10;;;;;;;-145.06;100.00;53884.28;10313966;28;20023;-78
2023/01/06 07:56:39;;;;;;;0.00;0.00;;;;;;;-145.06;100.00;53870.09;10303649;28;20019;-78
2023/01/06 08:01:39;;;;;;;0.00;0.00;;;;;;;-145.06;100.00;53896.44;10313121;28;20027;-78
2023/01/06 08:06:39;;;;;;;0.10;0.10;;;;;;;-145.06;100.00;53843.78;10312840;28;20070;-78
2023/01/06 08:11:40;;;;;;;0.10;0.10;;;;;;;-145.06;100.00;53872.13;10312746;28;20022;-77
2023/01/06 08:16:40;;;;;;;0.00;0.00;;;;;;;-145.06;100.00;53866.06;10298068;28;20053;-78
2023/01/06 08:21:40;;;;;;;0.10;0.10;;;;;;;-145.06;100.00;53884.28;10297205;28;20490;-78
2023/01/06 08:26:41;;;;;;;0.00;0.00;;;;;;;-145.06;100.00;53916.69;10296249;28;20019;-78
2023/01/06 08:31:41;;;;;;;0.00;0.00;;;;;;;-145.06;100.00;53880.22;10315647;28;20049;-79
2023/01/06 08:36:42;;;;;;;0.00;0.00;;;;;;;-145.06;100.00;53868.09;10314744;28;20030;-78
2023/01/06 08:41:42;;;;;;;0.00;0.00;;;;;;;-145.06;100.00;53872.13;10311375;28;20370;-79
2023/01/06 08:46:42;;;;;;;0.10;0.10;;;;;;;-145.06;100.00;53847.84;10312210;28;20482;-79
2023/01/06 08:51:42;;;;;;;0.00;0.00;;;;;;;-145.06;100.00;53894.41;10311364;28;20058;-79
2023/01/06 08:56:43;;;;;;;0.00;0.00;;;;;;;-145.06;100.00;53845.81;10311861;28;20548;-79
2023/01/06 09:01:43;;;;;;;0.00;0.00;;;;;;;-145.06;100.00;53851.88;10313505;28;20378;-79
2023/01/06 09:06:46;;;;;;;0.10;0.10;;;;;;;-145.06;100.00;53872.13;10294624;28;20027;-78
2023/01/06 09:11:46;;;;;;;0.00;0.00;;;;;;;-145.06;100.00;53876.19;10320766;28;20086;-78
2023/01/06 09:16:47;;;;;;;0.10;0.10;;;;;;;-145.06;100.00;53870.09;10294732;28;20029;-79
2023/01/06 09:21:47;;;;;;;0.05;0.05;;;;;;;-145.06;100.00;53894.41;10309811;28;20030;-78
2023/01/06 09:26:48;;;;;;;0.00;0.00;;;;;;;-145.06;100.00;53853.91;10309695;28;20023;-79
2023/01/06 09:31:48;;;;;;;0.10;0.10;;;;;;;-145.06;100.00;53868.09;10312187;28;20109;-79
2023/01/06 09:36:48;;;;;;;0.07;0.07;;;;;;;-145.06;100.00;53904.53;10326404;28;20467;-78
2023/01/06 09:42:16;;;;;;;0.10;0.10;;;;;;;-145.06;100.00;53864.03;10309425;28;20262;-78
2023/01/06 09:47:22;;;;;;;0.10;0.10;;;;;;;-145.06;100.00;53874.16;10313840;28;20476;-79
2023/01/06 09:52:44;;;;;;;0.10;0.10;;;;;;;-145.06;100.00;53870.09;10319465;28;20019;-78
2023/01/06 09:57:49;;;;;;;0.10;0.10;;;;;;;-145.06;100.00;53868.09;10306346;28;20026;-78
2023/01/06 10:02:49;;;;;;;0.00;0.00;;;;;;;-145.06;100.00;53864.03;10306228;28;20035;-79
2023/01/06 10:08:05;;;;;;;0.00;0.00;;;;;;;-145.06;100.00;53851.88;10308357;28;20445;-79
2023/01/06 10:13:30;;;;;;;0.00;0.00;;;;;;;-145.06;100.00;53884.28;10291392;28;20022;-78
2023/01/06 10:18:40;;;;;;;0.10;0.10;;;;;;;-145.06;100.00;53829.59;10321349;28;20054;-79
2023/01/06 10:23:55;;;;;;;0.10;0.10;;;;;;;-145.06;100.00;53862.00;10300106;28;20033;-79
2023/01/06 10:29:01;;;;;;;0.00;0.00;;;;;;;-145.06;100.00;53902.50;10309773;28;20029;-79
2023/01/06 10:34:03;;;;;;;0.10;0.10;;;;;;;-145.06;100.00;53876.19;10310430;28;20403;-79
2023/01/06 10:39:07;;;;;;;0.00;0.00;;;;;;;-145.06;100.00;53868.09;10291827;28;20015;-79
2023/01/06 10:44:10;;;;;;;0.10;0.10;;;;;;;-145.06;100.00;53868.09;10295002;28;20030;-79
2023/01/06 10:49:17;;;;;;;0.10;0.10;;;;;;;-145.06;100.00;53862.00;10307150;28;20474;-79
2023/01/06 10:54:21;;;;;;;0.10;0.10;;;;;;;-145.06;100.00;53872.13;10308370;28;20037;-79
2023/01/06 10:59:21;;;;;;;0.00;0.00;;;;;;;-145.06;100.00;53868.09;10294729;28;20117;-78
2023/01/06 11:04:25;;;;;;;0.10;0.10;;;;;;;-145.06;100.00;53862.00;10321955;28;20031;-79
2023/01/06 11:09:40;;;;;;;0.00;0.00;;;;;;;-145.06;100.00;53866.06;10311117;28;20023;-79
2023/01/06 11:14:41;;;;;;;0.10;0.10;;;;;;;-145.06;100.00;53880.22;10319777;28;20030;-79
2023/01/06 11:19:43;;;;;;;0.00;0.00;;;;;;;-145.06;100.00;53866.06;10314557;28;20078;-79
2023/01/06 11:24:52;;;;;;;0.00;0.00;;;;;;;-145.06;100.00;53880.22;10291555;28;20382;-79
2023/01/06 11:29:53;;;;;;;0.10;0.10;;;;;;;-145.06;100.00;53851.88;10294334;28;20298;-79
2023/01/06 11:34:55;;;;;;;0.10;0.10;;;;;;;-145.06;100.00;53880.22;10311234;28;20054;-79
2023/01/06 11:39:56;;;;;;;0.00;0.00;;;;;;;-145.06;100.00;53870.09;10294006;28;20275;-78
2023/01/06 11:44:56;;;;;;;0.00;0.00;;;;;;;-145.06;100.00;53874.16;10311430;28;20378;-79
2023/01/06 11:49:59;;;;;;;0.10;0.10;;;;;;;-145.06;100.00;53839.72;10311162;28;20046;-79
2023/01/06 11:55:01;;;;;;;0.10;0.10;;;;;;;-145.06;100.00;53807.31;10294570;28;20474;-79
2023/01/06 12:00:11;;;;;;;0.10;0.10;;;;;;;-145.06;100.00;53833.66;10311957;28;20471;-80
2023/01/06 12:05:24;;;;;;;0.10;0.10;;;;;;;-145.06;100.00;53876.19;10292878;28;20110;-80
2023/01/06 12:10:33;;;;;;;0.10;0.10;;;;;;;-145.06;100.00;53876.19;10311728;28;20115;-80
2023/01/06 12:15:35;;;;;;;0.10;0.10;;;;;;;-145.06;100.00;53868.09;10310863;28;20552;-80
2023/01/06 12:20:40;;;;;;;0.00;0.00;;;;;;;-145.06;100.00;53845.81;10310535;28;20037;-80
2023/01/06 12:25:46;;;;;;;0.00;0.00;;;;;;;-145.06;100.00;53876.19;10312655;28;20026;-80
2023/01/06 12:31:05;;;;;;;0.00;0.00;;;;;;;-145.06;100.00;53835.69;10309016;28;20034;-79
2023/01/06 12:36:12;;;;;;;0.10;0.10;;;;;;;-145.06;100.00;53868.09;10310162;28;20019;-80
2023/01/06 12:41:19;;;;;;;0.00;0.00;;;;;;;-145.06;100.00;53864.03;10304995;28;20421;-79
2023/01/06 12:46:27;;;;;;;0.00;0.00;;;;;;;-145.06;100.00;53864.03;10294052;28;20474;-79
2023/01/06 12:51:43;;;;;;;0.10;0.10;;;;;;;-145.06;100.00;53835.69;10311653;28;20034;-80
2023/01/06 12:57:07;;;;;;;0.00;0.00;;;;;;;-145.06;100.00;53874.16;10312972;28;20019;-79
2023/01/06 13:02:38;;;;;;;0.03;0.03;;;;;;;-145.06;100.00;53890.38;10289024;28;20082;-79
2023/01/06 13:08:05;;;;;;;0.00;0.00;;;;;;;-145.06;100.00;53817.47;10296089;28;20046;-80
2023/01/06 13:13:36;;;;;;;0.00;0.00;;;;;;;-145.06;100.00;53868.09;10277139;28;20372;-79
2023/01/06 13:18:51;;;;;;;0.00;0.00;;;;;;;-145.06;100.00;53876.19;10289552;28;20027;-78
2023/01/06 13:24:16;;;;;;;0.00;0.00;;;;;;;-145.06;100.00;53862.00;10308431;28;20371;-78
2023/01/06 13:29:29;;;;;;;0.00;0.00;;;;;;;-145.06;100.00;53888.34;10292069;28;20397;-79
2023/01/06 13:34:50;;;;;;;0.05;0.05;;;;;;;-145.06;100.00;53898.47;10306834;28;20544;-79
2023/01/06 13:39:56;;;;;;;0.10;0.10;;;;;;;-145.06;100.00;53872.13;10306207;28;20022;-79
2023/01/06 13:44:56;;;;;;;0.10;0.10;;;;;;;-145.06;100.00;53878.22;10305685;28;20034;-79
2023/01/06 13:49:57;;;;;;;0.00;0.00;;;;;;;-145.06;100.00;53831.63;10306124;28;20422;-79
2023/01/06 13:55:01;;;;;;;0.00;0.00;;;;;;;-145.06;100.00;53884.28;10289673;28;20375;-78
2023/01/06 14:00:04;;;;;;;0.00;0.00;;;;;;;-145.06;100.00;53817.47;10308053;28;20023;-79
2023/01/06 14:05:05;;;;;;;0.00;0.00;;;;;;;-145.06;100.00;53892.38;10289350;28;20030;-79
2023/01/06 14:10:35;;;;;;;0.00;0.00;;;;;;;-145.06;100.00;53855.94;10300508;28;20028;-79
2023/01/06 14:15:54;;;;;;;0.00;0.00;;;;;;;-145.06;100.00;53843.78;10310573;28;20027;-79
2023/01/06 14:21:01;;;;;;;0.10;0.10;;;;;;;-145.06;100.00;53839.72;10294726;28;20577;-79
2023/01/06 14:26:02;;;;;;;0.00;0.00;;;;;;;-145.06;100.00;53823.53;10306876;28;20107;-79
2023/01/06 14:31:24;;;;;;;0.00;0.00;;;;;;;-145.06;100.00;53888.34;10305823;28;20054;-78
2023/01/06 14:36:28;;;;;;;0.00;0.00;;;;;;;-145.06;100.00;53857.97;10300840;28;20106;-78
2023/01/06 14:41:33;;;;;;;0.10;0.10;;;;;;;-145.06;100.00;53894.41;10337876;28;20030;-79
2023/01/06 14:46:44;;;;;;;0.10;0.10;;;;;;;-145.06;100.00;53882.25;10305889;28;20105;-80
2023/01/06 14:51:46;;;;;;;0.00;0.00;;;;;;;-145.06;100.00;53823.53;10302983;28;20028;-79
2023/01/06 14:56:54;;;;;;;0.10;0.10;;;;;;;-145.06;100.00;53853.91;10309188;28;20029;-79
2023/01/06 15:01:56;;;;;;;0.10;0.10;;;;;;;-145.06;100.00;53904.53;10303938;28;20374;-80
2023/01/06 15:07:18;;;;;;;0.00;0.00;;;;;;;-145.06;100.00;53872.13;10286523;28;20031;-80
2023/01/06 15:12:23;;;;;;;0.10;0.10;;;;;;;-145.06;100.00;53876.19;10341963;28;20030;-80
2023/01/06 15:17:23;;;;;;;0.00;0.00;;;;;;;-145.06;100.00;53874.16;10305069;28;20027;-79
2023/01/06 15:22:24;;;;;;;0.00;0.00;;;;;;;-145.06;100.00;53876.19;10304875;28;20027;-78
2023/01/06 15:27:24;;;;;;;0.00;0.00;;;;;;;-145.06;100.00;53872.13;10302560;28;20497;-79
2023/01/06 15:32:25;;;;;;;0.10;0.10;;;;;;;-145.06;100.00;53864.03;10312673;23;20532;-81
2023/01/06 15:37:33;;;;;;;0.00;0.00;;;;;;;-145.06;100.00;53831.63;10263249;29;20291;-81
2023/01/06 15:42:35;;;;;;;0.10;0.10;;;;;;;-145.06;100.00;53864.03;10285728;28;20023;-82
2023/01/06 15:47:40;;;;;;;0.00;0.00;;;;;;;-145.06;100.00;53876.19;10268161;29;20027;-81
2023/01/06 15:52:47;;;;;;;0.00;0.00;;;;;;;-145.06;100.00;53851.88;10288293;29;20090;-81
2023/01/06 15:57:59;;;;;;;0.00;0.00;;;;;;;-145.06;100.00;53837.72;10289009;28;20022;-80
2023/01/06 16:02:59;;;;;;;0.10;0.10;;;;;;;-145.06;100.00;53849.84;10269312;29;20599;-81
2023/01/06 16:08:01;;;;;;;0.10;0.10;;;;;;;-145.06;100.00;53847.84;10268805;28;20110;-80
2023/01/06 16:13:25;;;;;;;0.00;0.00;;;;;;;-145.06;100.00;53862.00;10285316;28;20023;-81
2023/01/06 16:18:36;;;;;;;0.07;0.07;;;;;;;-145.06;100.00;53908.59;10266256;29;20030;-80
2023/01/06 16:23:38;;;;;;;0.00;0.00;;;;;;;-145.06;100.00;53874.16;10269184;28;20027;-80
2023/01/06 16:28:46;;;;;;;0.00;0.00;;;;;;;-145.06;100.00;53900.50;10286962;29;20035;-81
2023/01/06 16:33:47;;;;;;;0.00;0.00;;;;;;;-145.06;100.00;53866.06;10285533;28;20030;-81
2023/01/06 16:38:47;;;;;;;0.00;0.00;;;;;;;-145.06;100.00;53896.44;10270430;28;20046;-81
2023/01/06 16:43:48;;;;;;;0.00;0.00;;;;;;;-145.06;100.00;53884.28;10272800;28;20034;-81
2023/01/06 16:48:49;;;;;;;0.00;0.00;;;;;;;-145.06;100.00;53888.34;10268115;29;20019;-80
2023/01/06 16:53:49;;;;;;;0.00;0.00;;;;;;;-145.06;100.00;53908.59;10286959;28;20027;-80
2023/01/06 16:58:52;;;;;;;0.00;0.00;;;;;;;-145.06;100.00;53882.25;10283651;28;20437;-81
2023/01/06 17:03:55;;;;;;;0.00;0.00;;;;;;;-145.06;100.00;53884.28;10267730;28;20285;-81
2023/01/06 17:09:00;;;;;;;0.00;0.00;;;;;;;-145.06;100.00;53892.38;10285071;28;20082;-81
2023/01/06 17:14:02;;;;;;;;;;;;;;;-145.06;100.00;53855.94;10266878;28;20103;-80
2023/01/06 17:19:20;;;;;;;0.10;0.10;;;;;;;-145.06;100.00;53884.28;10284428;29;20089;-81
2023/01/06 17:24:23;;;;;;;0.00;0.00;;;;;;;-145.06;100.00;53874.16;10268604;28;20034;-80
2023/01/06 17:29:29;;;;;;;0.00;0.00;;;;;;;-145.06;100.00;53827.59;10284581;29;20059;-80
2023/01/06 17:34:32;;;;;;;0.00;0.00;;;;;;;-145.06;100.00;53874.16;10266629;28;20477;-80
2023/01/06 17:39:41;;;;;;;0.00;0.00;;;;;;;-145.06;100.00;53868.09;10287034;28;20039;-80
2023/01/06 17:44:45;;;;;;;0.00;0.00;;;;;;;-145.06;100.00;53864.03;10280465;28;20023;-80
2023/01/06 17:49:58;;;;;;;0.00;0.00;;;;;;;-145.06;100.00;53898.47;10282093;29;20471;-80
2023/01/06 17:55:43;;;;;;;0.00;0.00;;;;;;;-145.06;100.00;53864.03;10265280;28;20430;-80
2023/01/06 18:00:44;;;;;;;0.00;0.00;;;;;;;-145.06;100.00;53908.59;10264488;29;20011;-81
2023/01/06 18:05:44;;;;;;;0.00;0.00;;;;;;;-145.06;100.00;53876.19;10282784;28;20034;-80
2023/01/06 18:11:01;;;;;;;0.00;0.00;;;;;;;-145.06;100.00;53864.03;10264975;28;20372;-80
2023/01/06 18:16:14;;;;;;;0.00;0.00;;;;;;;-145.06;100.00;53896.44;10283881;28;20027;-80
2023/01/06 18:21:15;;;;;;;0.00;0.00;;;;;;;-145.06;100.00;53882.25;10281753;29;20033;-81
2023/01/06 18:26:32;;;;;;;0.00;0.00;;;;;;;-145.06;100.00;53880.22;10265747;28;20027;-81
2023/01/06 18:31:36;;;;;;;0.00;0.00;;;;;;;-145.06;100.00;53886.31;10281380;29;20070;-81
2023/01/06 18:36:36;;;;;;;0.00;0.00;;;;;;;-145.06;100.00;53876.19;10263366;29;20042;-81
2023/01/06 18:41:36;;;;;;;0.00;0.00;;;;;;;-145.06;100.00;53880.22;10280806;28;20524;-81
2023/01/06 18:46:39;;;;;;;0.00;0.00;;;;;;;-145.06;100.00;53880.22;10264050;29;20035;-80
2023/01/06 18:51:40;;;;;;;0.00;0.00;;;;;;;-145.06;100.00;53876.19;10280991;29;20031;-81
2023/01/06 18:56:40;;;;;;;0.00;0.00;;;;;;;-145.06;100.00;53906.56;10272005;28;20028;-80
2023/01/06 19:01:46;;;;;;;0.00;0.00;;;;;;;-145.06;100.00;53894.41;10262614;29;20031;-80
2023/01/06 19:06:59;;;;;;;0.00;0.00;;;;;;;-145.06;100.00;53908.59;10263011;29;20031;-81
2023/01/06 19:12:21;;;;;;;0.00;0.00;;;;;;;-145.06;100.00;53930.88;10281508;28;20019;-80
2023/01/06 19:17:30;;;;;;;0.00;0.00;;;;;;;-145.06;100.00;53886.31;10278579;28;20038;-80
2023/01/06 19:22:35;;;;;;;0.00;0.00;;;;;;;-145.06;100.00;53892.38;10267742;29;20069;-79
2023/01/06 19:27:41;;;;;;;0.00;0.00;;;;;;;-145.06;100.00;53900.50;10270437;29;20027;-81
2023/01/06 19:32:41;;;;;;;0.00;0.00;;;;;;;-145.06;100.00;53890.38;10287640;29;20039;-81
2023/01/06 19:37:41;;;;;;;0.00;0.00;;;;;;;-145.06;100.00;53876.19;10269914;28;20019;-81
2023/01/06 19:42:42;;;;;;;0.00;0.00;;;;;;;-145.06;100.00;53896.44;10272953;29;20029;-80
2023/01/06 19:47:43;;;;;;;0.00;0.00;;;;;;;-145.06;100.00;53888.34;10286656;28;20033;-80
2023/01/06 19:52:43;;;;;;;0.00;0.00;;;;;;;-145.06;100.00;53924.78;10286881;29;20034;-81
2023/01/06 19:57:49;;;;;;;0.00;0.00;;;;;;;-145.06;100.00;53910.63;10270124;29;20075;-81
2023/01/06 20:02:52;;;;;;;0.00;0.00;;;;;;;-145.06;100.00;53888.34;10269866;29;20023;-81
2023/01/06 20:07:53;;;;;;;0.00;0.00;;;;;;;-145.06;100.00;53902.50;10269862;28;20023;-81
2023/01/06 20:12:53;;;;;;;0.00;0.00;;;;;;;-145.06;100.00;53866.06;10287125;28;20023;-81
2023/01/06 20:17:54;;;;;;;0.00;0.00;;;;;;;-145.06;100.00;53888.34;10271946;28;20017;-80
2023/01/06 20:22:54;;;;;;;0.00;0.00;;;;;;;-145.06;100.00;53896.44;10271271;29;20266;-81
2023/01/06 20:27:54;;;;;;;0.00;0.00;;;;;;;-145.06;100.00;53920.75;10271736;29;20027;-81
2023/01/06 20:32:55;;;;;;;0.00;0.00;;;;;;;-145.06;100.00;53872.13;10286591;28;20066;-81
2023/01/06 20:37:55;;;;;;;0.00;0.00;;;;;;;-145.06;100.00;53864.03;10287389;28;20285;-81
2023/01/06 20:42:55;;;;;;;0.00;0.00;;;;;;;-145.06;100.00;53930.88;10271119;29;20047;-81
2023/01/06 20:47:56;;;;;;;0.00;0.00;;;;;;;-145.06;100.00;53884.28;10288693;28;20031;-81
2023/01/06 20:52:56;;;;;;;0.00;0.00;;;;;;;-145.06;100.00;53904.53;10286440;29;20031;-80
2023/01/06 20:57:57;;;;;;;0.00;0.00;;;;;;;-145.06;100.00;53874.16;10273861;28;20003;-80
2023/01/06 21:02:57;;;;;;;0.00;0.00;;;;;;;-145.06;100.00;53914.66;10288785;29;20046;-80
2023/01/06 21:07:57;;;;;;;0.00;0.00;;;;;;;-145.06;100.00;53916.69;10287699;28;20290;-80
2023/01/06 21:12:58;;;;;;;0.00;0.00;;;;;;;-145.06;100.00;53886.31;10281835;28;20115;-82
2023/01/06 21:17:58;;;;;;;0.00;0.00;;;;;;;-145.06;100.00;53896.44;10270873;29;20034;-80
2023/01/06 21:22:58;;;;;;;0.00;0.00;;;;;;;-145.06;100.00;53896.44;10269370;28;20099;-80
2023/01/06 21:27:59;;;;;;;0.00;0.00;;;;;;;-145.06;100.00;53884.28;10270697;29;20043;-80
2023/01/06 21:32:59;;;;;;;0.00;0.00;;;;;;;-145.06;100.00;53896.44;10293233;23;20051;-77
2023/01/06 21:37:59;;;;;;;0.00;0.00;;;;;;;-145.06;100.00;53892.38;10246872;28;20031;-77
2023/01/06 21:43:09;;;;;;;0.00;0.00;;;;;;;-145.06;100.00;53855.94;10249122;28;20090;-77
2023/01/06 21:48:11;;;;;;;0.00;0.00;;;;;;;-145.06;100.00;53904.53;10233840;29;20490;-77
2023/01/06 21:53:12;;;;;;;0.00;0.00;;;;;;;-145.06;100.00;53888.34;10250082;29;20490;-77
2023/01/06 21:58:12;;;;;;;0.00;0.00;;;;;;;-145.06;100.00;53894.41;10250596;28;20023;-77
2023/01/06 22:03:13;;;;;;;0.00;0.00;;;;;;;-145.06;100.00;53932.88;10250326;29;20027;-77
2023/01/06 22:08:13;;;;;;;0.00;0.00;;;;;;;-145.06;100.00;53870.09;10250353;28;20035;-78
2023/01/06 22:13:18;;;;;;;0.00;0.00;;;;;;;-145.06;100.00;53878.22;10248245;28;20414;-77
2023/01/06 22:18:18;;;;;;;0.00;0.00;;;;;;;-145.06;100.00;53884.28;10249589;28;20270;-77
2023/01/06 22:23:20;;;;;;;0.00;0.00;;;;;;;-145.06;100.00;53930.88;10248328;29;20035;-77
2023/01/06 22:28:20;;;;;;;0.00;0.00;;;;;;;-145.06;100.00;53902.50;10249011;28;20074;-77
2023/01/06 22:33:20;;;;;;;0.00;0.00;;;;;;;-145.06;100.00;53880.22;10231973;28;20505;-77
2023/01/06 22:38:20;;;;;;;0.00;0.00;;;;;;;-145.06;100.00;53910.63;10248103;28;20273;-77
2023/01/06 22:43:21;;;;;;;0.00;0.00;;;;;;;-145.06;100.00;53906.56;10247499;28;20363;-77
2023/01/06 22:48:22;;;;;;;0.00;0.00;;;;;;;-145.06;100.00;53886.31;10247679;28;20102;-77